createdAt,value
2023-04-08T00:04:46.725Z,101683.69
2023-04-08T00:09:48.484Z,101687.25
2023-04-08T00:14:50.885Z,101685.75
2023-04-08T00:19:52.967Z,101696.00
2023-04-08T00:24:54.771Z,101695.28
2023-04-08T00:29:57.409Z,101687.66
2023-04-08T00:34:59.156Z,101687.66
2023-04-08T00:40:01.049Z,101684.53
2023-04-08T00:45:02.907Z,101688.75
2023-04-08T00:50:08.273Z,101690.81
2023-04-08T00:55:10.167Z,101690.94
2023-04-08T01:00:13.780Z,101691.88
2023-04-08T01:05:43.922Z,101684.09
2023-04-08T01:10:53.823Z,101680.56
2023-04-08T01:15:56.167Z,101691.88
2023-04-08T01:21:00.180Z,101693.53
2023-04-08T01:26:01.994Z,101696.66
2023-04-08T01:31:04.738Z,101693.94
2023-04-08T01:36:08.940Z,101704.31
2023-04-08T01:41:12.103Z,101705.97
2023-04-08T01:46:15.536Z,101704.88
2023-04-08T01:51:18.716Z,101712.50
2023-04-08T01:56:23.199Z,101720.03
2023-04-08T02:01:29.634Z,101719.63
2023-04-08T02:06:33.337Z,101713.06
2023-04-08T02:11:35.488Z,101700.09
2023-04-08T02:17:02.463Z,101706.09
2023-04-08T02:22:38.059Z,101722.06
2023-04-08T02:27:43.901Z,101727.66
2023-04-08T02:32:48.724Z,101733.00
2023-04-08T02:37:50.706Z,101727.38
2023-04-08T02:42:54.225Z,101741.97
2023-04-08T02:47:56.111Z,101739.38
2023-04-08T02:52:57.969Z,101732.56
2023-04-08T02:57:59.740Z,101740.22
2023-04-08T03:03:01.822Z,101747.72
2023-04-08T03:08:03.825Z,101742.53
2023-04-08T03:13:05.774Z,101752.09
2023-04-08T03:18:07.654Z,101759.88
2023-04-08T03:23:09.526Z,101755.78
2023-04-08T03:28:11.364Z,101762.88
2023-04-08T03:33:13.333Z,101764.66
2023-04-08T03:38:15.671Z,101762.88
2023-04-08T03:43:19.547Z,101771.22
2023-04-08T03:48:21.408Z,101769.69
2023-04-08T03:53:23.187Z,101775.03
2023-04-08T03:58:25.004Z,101786.34
2023-04-08T04:03:27.348Z,101785.25
2023-04-08T04:08:29.289Z,101785.53
2023-04-08T04:13:31.079Z,101800.28
2023-04-08T04:18:32.918Z,101802.16
2023-04-08T04:23:34.890Z,101804.38
2023-04-08T04:28:37.173Z,101807.69
2023-04-08T04:33:38.896Z,101820.38
2023-04-08T04:38:40.785Z,101823.78
2023-04-08T04:43:42.504Z,101824.47
2023-04-08T04:48:44.298Z,101827.91
2023-04-08T04:53:46.064Z,101834.03
2023-04-08T04:58:48.008Z,101841.94
2023-04-08T05:03:49.872Z,101840.88
2023-04-08T05:08:52.019Z,101847.69
2023-04-08T05:13:53.928Z,101851.13
2023-04-08T05:18:55.704Z,101861.50
2023-04-08T05:23:57.460Z,101862.31
2023-04-08T05:28:59.347Z,101865.34
2023-04-08T05:34:01.368Z,101872.84
2023-04-08T05:39:03.524Z,101873.03
2023-04-08T05:44:05.399Z,101878.09
2023-04-08T05:49:07.244Z,101895.97
2023-04-08T05:54:09.368Z,101897.75
2023-04-08T05:59:11.150Z,101908.03
2023-04-08T06:04:12.990Z,101901.97
2023-04-08T06:09:14.801Z,101906.81
2023-04-08T06:14:16.546Z,101910.81
2023-04-08T06:19:18.305Z,101916.53
2023-04-08T06:24:20.040Z,101911.22
2023-04-08T06:29:23.589Z,101919.44
2023-04-08T06:34:25.384Z,101916.72
2023-04-08T06:39:27.132Z,101923.44
2023-04-08T06:44:29.057Z,101930.44
2023-04-08T06:49:35.827Z,101945.22
2023-04-08T06:54:37.688Z,101957.28
2023-04-08T06:59:39.552Z,101958.78
2023-04-08T07:04:41.312Z,101974.13
2023-04-08T07:09:45.833Z,101967.66
2023-04-08T07:14:47.567Z,101964.69
2023-04-08T07:19:49.584Z,101969.38
2023-04-08T07:24:51.968Z,101965.13
2023-04-08T07:29:54.648Z,101982.91
2023-04-08T07:34:56.393Z,101982.91
2023-04-08T07:39:58.120Z,101984.28
2023-04-08T07:44:59.891Z,101995.06
2023-04-08T07:50:01.833Z,101989.69
2023-04-08T07:55:05.745Z,102010.09
2023-04-08T08:00:08.719Z,101997.91
2023-04-08T08:05:10.464Z,102004.75
2023-04-08T08:10:12.208Z,102006.28
2023-04-08T08:15:14.808Z,102011.59
2023-04-08T08:20:16.775Z,102004.72
2023-04-08T08:25:19.721Z,102006.06
2023-04-08T08:30:22.216Z,102017.44
2023-04-08T08:35:24.006Z,102016.19
2023-04-08T08:40:25.787Z,102025.84
2023-04-08T08:45:27.658Z,102038.69
2023-04-08T08:50:29.455Z,102026.50
2023-04-08T08:56:00.265Z,102030.50
2023-04-08T09:00:57.711Z,102034.56
2023-04-08T09:06:01.840Z,102042.78
2023-04-08T09:11:23.405Z,102046.19
2023-04-08T09:16:25.503Z,102053.53
2023-04-08T09:21:27.464Z,102062.78
2023-04-08T09:26:29.272Z,102065.91
2023-04-08T09:31:42.783Z,102065.59
2023-04-08T09:36:44.666Z,102068.47
2023-04-08T09:41:52.308Z,102074.34
2023-04-08T09:47:12.736Z,102073.63
2023-04-08T09:52:28.775Z,102077.13
2023-04-08T09:57:55.674Z,102079.47
2023-04-08T10:03:35.241Z,102085.28
2023-04-08T10:08:37.288Z,102080.81
2023-04-08T10:13:39.168Z,102084.75
2023-04-08T10:18:41.010Z,102086.78
2023-04-08T10:24:06.131Z,102091.34
2023-04-08T10:29:40.079Z,102091.16
2023-04-08T10:34:53.597Z,102091.31
2023-04-08T10:39:55.476Z,102078.56
2023-04-08T10:45:01.752Z,102077.72
2023-04-08T10:50:18.644Z,102070.25
2023-04-08T10:55:28.674Z,102069.84
2023-04-08T11:00:40.937Z,102074.94
2023-04-08T11:05:43.625Z,102077.13
2023-04-08T11:10:45.564Z,102079.75
2023-04-08T11:15:47.736Z,102080.56
2023-04-08T11:20:53.818Z,102081.06
2023-04-08T11:25:56.648Z,102074.84
2023-04-08T11:30:59.751Z,102073.56
2023-04-08T11:36:06.302Z,102081.72
2023-04-08T11:41:08.308Z,102086.00
2023-04-08T11:46:12.608Z,102085.31
2023-04-08T11:51:14.870Z,102091.38
2023-04-08T11:56:23.769Z,102079.25
2023-04-08T12:01:26.979Z,102075.97
2023-04-08T12:06:29.758Z,102069.38
2023-04-08T12:11:31.515Z,102074.00
2023-04-08T12:16:33.372Z,102074.34
2023-04-08T12:21:36.015Z,102076.31
2023-04-08T12:26:37.824Z,102079.59
2023-04-08T12:31:39.665Z,102068.31
2023-04-08T12:36:42.030Z,102076.63
2023-04-08T12:41:43.820Z,102080.41
2023-04-08T12:46:47.111Z,102065.53
2023-04-08T12:51:49.195Z,102054.28
2023-04-08T12:56:50.914Z,102061.09
2023-04-08T13:01:52.751Z,102057.78
2023-04-08T13:06:55.519Z,102061.50
2023-04-08T13:11:58.097Z,102050.53
2023-04-08T13:16:59.918Z,102056.03
2023-04-08T13:22:01.825Z,102053.94
2023-04-08T13:27:03.823Z,102052.66
2023-04-08T13:32:05.876Z,102050.69
2023-04-08T13:37:07.757Z,102048.59
2023-04-08T13:42:09.538Z,102037.22
2023-04-08T13:47:11.649Z,102051.88
2023-04-08T13:52:13.403Z,102040.72
2023-04-08T13:57:15.310Z,102038.69
2023-04-08T14:02:17.516Z,102030.25
2023-04-08T14:07:19.822Z,102032.22
2023-04-08T14:12:21.596Z,102029.78
2023-04-08T14:17:23.409Z,102022.47
2023-04-08T14:22:25.357Z,102033.94
2023-04-08T14:27:27.880Z,102034.00
2023-04-08T14:32:29.764Z,102029.78
2023-04-08T14:37:31.589Z,102026.78
2023-04-08T14:42:33.349Z,102025.34
2023-04-08T14:47:35.116Z,102037.34
2023-04-08T14:52:36.931Z,102021.47
2023-04-08T14:57:38.677Z,102022.31
2023-04-08T15:02:40.503Z,102014.94
2023-04-08T15:07:42.988Z,102017.75
2023-04-08T15:12:44.755Z,102025.38
2023-04-08T15:17:46.741Z,102025.34
2023-04-08T15:22:48.595Z,102027.78
2023-04-08T15:27:50.370Z,102029.81
2023-04-08T15:32:52.669Z,102030.34
2023-04-08T15:37:54.876Z,102033.13
2023-04-08T15:42:56.693Z,102026.97
2023-04-08T15:47:59.551Z,102034.88
2023-04-08T15:53:01.406Z,102023.97
2023-04-08T15:58:03.165Z,102022.78
2023-04-08T16:03:08.213Z,102022.78
2023-04-08T16:08:10.202Z,102027.72
2023-04-08T16:13:12.552Z,102025.34
2023-04-08T16:18:14.387Z,102024.97
2023-04-08T16:23:17.787Z,102030.91
2023-04-08T16:28:19.683Z,102034.03
2023-04-08T16:33:26.281Z,102036.84
2023-04-08T16:38:28.036Z,102042.09
2023-04-08T16:43:29.894Z,102047.03
2023-04-08T16:48:31.654Z,102052.00
2023-04-08T16:53:33.487Z,102058.75
2023-04-08T16:58:35.316Z,102056.03
2023-04-08T17:03:37.879Z,102057.50
2023-04-08T17:08:43.858Z,102074.75
2023-04-08T17:13:46.165Z,102073.66
2023-04-08T17:18:48.109Z,102093.34
2023-04-08T17:23:52.921Z,102116.28
2023-04-08T17:28:54.915Z,102122.59
2023-04-08T17:33:56.713Z,102133.34
2023-04-08T17:38:58.479Z,102155.94
2023-04-08T17:44:00.338Z,102157.41
2023-04-08T17:49:02.134Z,102168.72
2023-04-08T17:54:05.019Z,102181.50
2023-04-08T17:59:07.264Z,102193.19
2023-04-08T18:04:10.328Z,102205.59
2023-04-08T18:09:12.258Z,102212.16
2023-04-08T18:14:14.017Z,102229.63
2023-04-08T18:19:15.829Z,102230.28
2023-04-08T18:24:18.992Z,102239.44
2023-04-08T18:29:20.786Z,102252.63
2023-04-08T18:34:24.478Z,102253.06
2023-04-08T18:39:26.288Z,102260.50
2023-04-08T18:44:28.511Z,102272.09
2023-04-08T18:49:33.305Z,102279.13
2023-04-08T18:54:35.774Z,102279.94
2023-04-08T18:59:37.679Z,102290.63
2023-04-08T19:04:39.489Z,102286.38
2023-04-08T19:09:41.450Z,102295.03
2023-04-08T19:14:43.244Z,102296.44
2023-04-08T19:19:45.130Z,102295.66
2023-04-08T19:24:47.056Z,102307.34
2023-04-08T19:29:49.328Z,102302.69
2023-04-08T19:34:51.126Z,102298.16
2023-04-08T19:39:53.587Z,102299.38
2023-04-08T19:44:55.487Z,102297.84
2023-04-08T19:49:58.158Z,102310.31
2023-04-08T19:55:00.145Z,102302.25
2023-04-08T20:00:02.420Z,102308.94
2023-04-08T20:05:04.633Z,102309.66
2023-04-08T20:10:08.307Z,102310.50
2023-04-08T20:15:23.027Z,102320.78
2023-04-08T20:20:28.899Z,102318.88
2023-04-08T20:25:32.250Z,102316.13
2023-04-08T20:30:34.114Z,102320.25
2023-04-08T20:35:37.290Z,102318.47
2023-04-08T20:40:44.084Z,102311.31
2023-04-08T20:45:45.865Z,102318.31
2023-04-08T20:50:51.019Z,102316.53
2023-04-08T20:55:53.017Z,102320.09
2023-04-08T21:00:54.791Z,102326.28
2023-04-08T21:05:58.411Z,102319.28
2023-04-08T21:11:00.674Z,102323.00
2023-04-08T21:16:02.498Z,102323.25
2023-04-08T21:21:04.594Z,102330.63
2023-04-08T21:26:13.553Z,102325.13
2023-04-08T21:31:15.732Z,102331.31
2023-04-08T21:36:17.589Z,102325.53
2023-04-08T21:41:19.552Z,102325.22
2023-04-08T21:46:21.560Z,102324.66
2023-04-08T21:51:23.427Z,102323.25
2023-04-08T21:56:25.520Z,102326.13
2023-04-08T22:01:27.337Z,102321.06
2023-04-08T22:06:32.641Z,102320.91
2023-04-08T22:11:34.806Z,102319.66
2023-04-08T22:16:36.725Z,102309.75
2023-04-08T22:21:38.748Z,102312.50
2023-04-08T22:26:42.638Z,102311.94
2023-04-08T22:31:47.504Z,102313.03
2023-04-08T22:36:52.863Z,102303.81
2023-04-08T22:42:03.843Z,102297.66
2023-04-08T22:47:09.598Z,102303.16
2023-04-08T22:52:13.570Z,102301.66
2023-04-08T22:57:22.180Z,102303.16
2023-04-08T23:02:28.005Z,102295.22
2023-04-08T23:07:30.423Z,102298.66
2023-04-08T23:12:32.323Z,102300.31
2023-04-08T23:17:34.075Z,102301.28
2023-04-08T23:22:35.883Z,102305.31
2023-04-08T23:27:37.687Z,102292.03
2023-04-08T23:32:39.495Z,102296.41
2023-04-08T23:37:41.269Z,102293.81
2023-04-08T23:42:42.990Z,102292.31
2023-04-08T23:47:44.740Z,102293.13
2023-04-08T23:52:46.501Z,102302.13
2023-04-08T23:57:50.557Z,102296.75
